createdAt,value
2019-06-01T00:01:48.864Z,15.60
2019-06-01T00:04:18.822Z,16.97
2019-06-01T00:06:48.970Z,13.78
2019-06-01T00:09:18.623Z,16.00
2019-06-01T00:11:49.412Z,11.45
2019-06-01T00:14:19.175Z,22.65
2019-06-01T00:16:50.277Z,14.60
2019-06-01T00:19:19.897Z,18.15
2019-06-01T00:21:49.518Z,15.00
2019-06-01T00:24:19.001Z,16.30
2019-06-01T00:26:49.809Z,17.02
2019-06-01T00:29:19.405Z,15.88
2019-06-01T00:31:49.903Z,19.37
2019-06-01T00:34:19.445Z,17.98
2019-06-01T00:36:49.669Z,22.30
2019-06-01T00:39:19.249Z,15.58
2019-06-01T00:41:50.139Z,15.25
2019-06-01T00:44:19.687Z,20.12
2019-06-01T00:46:49.160Z,22.82
2019-06-01T00:49:18.672Z,21.20
2019-06-01T00:51:49.077Z,18.07
2019-06-01T00:54:18.795Z,18.12
2019-06-01T00:56:49.594Z,18.15
2019-06-01T00:59:19.307Z,20.72
2019-06-01T01:01:50.013Z,20.48
2019-06-01T01:04:19.630Z,20.90
2019-06-01T01:06:52.835Z,24.57
2019-06-01T01:09:22.411Z,19.65
2019-06-01T01:11:53.227Z,18.40
2019-06-01T01:14:22.851Z,17.48
2019-06-01T01:16:54.031Z,24.02
2019-06-01T01:19:23.475Z,16.75
2019-06-01T01:21:54.049Z,21.70
2019-06-01T01:24:23.730Z,18.62
2019-06-01T01:26:53.261Z,22.25
2019-06-01T01:29:22.704Z,16.37
2019-06-01T01:31:53.155Z,16.30
2019-06-01T01:34:22.742Z,19.35
2019-06-01T01:36:52.706Z,13.70
2019-06-01T01:39:23.387Z,16.40
2019-06-01T01:41:52.851Z,17.20
2019-06-01T01:44:22.288Z,21.07
2019-06-01T01:46:52.659Z,15.60
2019-06-01T01:49:23.239Z,18.25
2019-06-01T01:51:52.911Z,21.75
2019-06-01T01:54:22.332Z,16.42
2019-06-01T01:56:52.144Z,16.82
2019-06-01T02:02:09.310Z,19.62
2019-06-01T02:04:38.819Z,16.67
2019-06-01T02:07:08.654Z,18.87
2019-06-01T02:09:38.020Z,20.65
2019-06-01T02:12:07.423Z,17.55
2019-06-01T02:14:36.930Z,19.30
2019-06-01T02:17:06.429Z,16.27
2019-06-01T02:19:36.586Z,18.05
2019-06-01T02:22:06.304Z,17.92
2019-06-01T02:24:35.866Z,19.23
2019-06-01T02:27:05.320Z,16.67
2019-06-01T02:29:34.852Z,15.68
2019-06-01T02:32:06.491Z,16.17
2019-06-01T02:34:35.437Z,15.83
2019-06-01T02:37:04.962Z,18.82
2019-06-01T02:39:34.463Z,18.25
2019-06-01T02:42:05.433Z,15.63
2019-06-01T02:44:35.077Z,15.90
2019-06-01T02:47:06.364Z,20.00
2019-06-01T02:49:35.842Z,15.28
2019-06-01T02:52:11.144Z,14.20
2019-06-01T02:54:40.655Z,13.62
2019-06-01T02:57:10.116Z,17.42
2019-06-01T02:59:39.648Z,19.75
2019-06-01T03:02:13.668Z,15.83
2019-06-01T03:04:42.482Z,21.82
2019-06-01T03:07:14.281Z,18.90
2019-06-01T03:09:45.692Z,17.45
2019-06-01T03:12:18.235Z,15.93
2019-06-01T03:14:49.537Z,23.35
2019-06-01T03:17:22.136Z,20.20
2019-06-01T03:19:54.479Z,19.17
2019-06-01T03:22:25.261Z,14.87
2019-06-01T03:24:57.746Z,13.83
2019-06-01T03:27:30.062Z,16.17
2019-06-01T03:30:03.422Z,15.72
2019-06-01T03:32:36.747Z,15.75
2019-06-01T03:35:06.772Z,16.12
2019-06-01T03:37:37.349Z,20.40
2019-06-01T03:40:15.869Z,20.48
2019-06-01T03:42:39.829Z,20.48
2019-06-01T03:45:09.669Z,16.80
2019-06-01T03:47:39.221Z,15.30
2019-06-01T03:50:09.812Z,19.35
2019-06-01T03:52:39.312Z,17.20
2019-06-01T03:55:09.858Z,21.23
2019-06-01T03:57:39.418Z,17.82
2019-06-01T04:00:09.369Z,19.12
2019-06-01T04:02:39.061Z,17.60
2019-06-01T04:05:09.707Z,18.07
2019-06-01T04:07:39.166Z,16.00
2019-06-01T04:10:10.029Z,16.90
2019-06-01T04:12:39.596Z,19.87
2019-06-01T04:15:12.843Z,18.73
2019-06-01T04:17:43.191Z,15.70
2019-06-01T04:20:12.827Z,17.67
2019-06-01T04:22:42.326Z,15.48
2019-06-01T04:25:12.317Z,14.35
2019-06-01T04:27:42.935Z,14.63
2019-06-01T04:30:13.694Z,14.07
2019-06-01T04:32:49.788Z,15.08
2019-06-01T04:35:14.389Z,14.95
2019-06-01T04:37:43.962Z,14.20
2019-06-01T04:40:13.693Z,16.55
2019-06-01T04:42:43.113Z,18.12
2019-06-01T04:45:13.146Z,16.87
2019-06-01T04:47:43.750Z,19.65
2019-06-01T04:50:13.437Z,16.12
2019-06-01T04:52:43.020Z,18.52
2019-06-01T04:55:13.081Z,13.43
2019-06-01T04:57:42.705Z,16.32
2019-06-01T05:00:25.753Z,17.48
2019-06-01T05:02:43.740Z,18.77
2019-06-01T05:05:15.219Z,15.78
2019-06-01T05:07:45.023Z,16.90
2019-06-01T05:10:16.051Z,20.30
2019-06-01T05:12:45.597Z,18.75
2019-06-01T05:15:16.080Z,18.15
2019-06-01T05:17:45.782Z,16.87
2019-06-01T05:20:16.650Z,20.35
2019-06-01T05:22:46.181Z,20.00
2019-06-01T05:25:16.953Z,17.73
2019-06-01T05:27:46.833Z,16.05
2019-06-01T05:30:17.649Z,19.42
2019-06-01T05:32:47.224Z,16.95
2019-06-01T05:35:17.919Z,17.25
2019-06-01T05:37:47.659Z,16.05
2019-06-01T05:40:19.631Z,19.85
2019-06-01T05:42:51.299Z,19.00
2019-06-01T05:45:22.571Z,20.85
2019-06-01T05:47:52.518Z,21.33
2019-06-01T05:50:22.688Z,19.70
2019-06-01T05:52:53.598Z,20.70
2019-06-01T05:55:23.213Z,23.32
2019-06-01T05:57:52.786Z,17.98
2019-06-01T06:00:25.300Z,20.92
2019-06-01T06:02:54.793Z,23.92
2019-06-01T06:05:24.341Z,21.85
2019-06-01T06:07:53.946Z,20.92
2019-06-01T06:10:23.446Z,16.50
2019-06-01T06:12:53.974Z,17.45
2019-06-01T06:15:23.580Z,25.45
2019-06-01T06:17:53.154Z,21.95
2019-06-01T06:20:22.752Z,27.77
2019-06-01T06:22:52.168Z,24.05
2019-06-01T06:25:21.617Z,23.12
2019-06-01T06:27:55.630Z,17.42
2019-06-01T06:30:27.356Z,23.55
2019-06-01T06:32:56.897Z,24.23
2019-06-01T06:35:26.377Z,21.97
2019-06-01T06:37:55.915Z,20.15
2019-06-01T06:40:26.802Z,21.45
2019-06-01T06:42:56.257Z,23.42
2019-06-01T06:45:25.903Z,19.50
2019-06-01T06:47:58.845Z,19.82
2019-06-01T06:52:57.302Z,21.75
2019-06-01T06:55:26.892Z,18.37
2019-06-01T06:57:56.375Z,18.40
2019-06-01T07:00:31.941Z,18.20
2019-06-01T07:03:01.560Z,23.80
2019-06-01T07:05:31.526Z,21.45
2019-06-01T07:08:01.193Z,22.75
2019-06-01T07:10:30.692Z,23.65
2019-06-01T07:13:00.227Z,21.33
2019-06-01T07:16:13.130Z,17.15
2019-06-01T07:18:43.781Z,20.92
2019-06-01T07:21:13.335Z,22.62
2019-06-01T07:23:42.945Z,18.75
2019-06-01T07:26:16.324Z,22.07
2019-06-01T07:28:50.043Z,20.68
2019-06-01T07:31:20.083Z,21.65
2019-06-01T07:33:49.764Z,18.20
2019-06-01T07:36:20.255Z,20.20
2019-06-01T07:38:50.833Z,22.55
2019-06-01T07:41:20.703Z,22.40
2019-06-01T07:43:52.259Z,20.88
2019-06-01T07:46:22.793Z,18.12
2019-06-01T07:48:52.311Z,23.70
2019-06-01T07:51:23.119Z,22.73
2019-06-01T07:53:52.697Z,17.75
2019-06-01T07:56:22.634Z,19.52
2019-06-01T07:58:52.135Z,18.75
2019-06-01T08:01:24.605Z,12.50
2019-06-01T08:03:52.696Z,18.12
2019-06-01T08:06:23.836Z,15.88
2019-06-01T08:08:54.417Z,17.17
2019-06-01T08:11:28.552Z,12.18
2019-06-01T08:13:55.002Z,13.32
2019-06-01T08:16:25.780Z,13.85
2019-06-01T08:18:55.319Z,19.48
2019-06-01T08:21:25.949Z,16.25
2019-06-01T08:23:55.599Z,17.32
2019-06-01T08:26:26.377Z,16.40
2019-06-01T08:28:55.985Z,19.05
2019-06-01T08:31:26.546Z,16.77
2019-06-01T08:33:56.221Z,14.20
2019-06-01T08:36:25.753Z,17.80
2019-06-01T08:38:55.214Z,13.32
2019-06-01T08:41:25.505Z,17.95
2019-06-01T08:44:02.816Z,16.80
2019-06-01T08:46:33.998Z,20.17
2019-06-01T08:49:03.640Z,13.10
2019-06-01T08:51:34.104Z,13.22
2019-06-01T08:54:04.204Z,11.43
2019-06-01T08:56:38.426Z,15.20
2019-06-01T08:59:06.314Z,9.80
2019-06-01T09:01:35.777Z,11.55
2019-06-01T09:04:05.351Z,11.97
2019-06-01T09:06:35.380Z,11.95
2019-06-01T09:09:11.408Z,11.22
2019-06-01T09:11:38.817Z,8.83
2019-06-01T09:14:08.309Z,14.00
2019-06-01T09:16:37.851Z,11.00
2019-06-01T09:19:11.036Z,11.20
2019-06-01T09:21:38.680Z,10.05
2019-06-01T09:24:09.639Z,10.08
2019-06-01T09:26:39.024Z,9.15
2019-06-01T09:29:08.564Z,11.48
2019-06-01T09:31:38.169Z,10.93
2019-06-01T09:34:08.058Z,10.08
2019-06-01T09:36:40.326Z,9.40
2019-06-01T09:39:10.066Z,8.53
2019-06-01T09:41:39.476Z,9.23
2019-06-01T09:44:08.970Z,6.67
2019-06-01T09:46:38.384Z,13.85
2019-06-01T09:49:07.891Z,11.83
2019-06-01T09:51:37.795Z,6.92
2019-06-01T09:54:07.622Z,6.85
2019-06-01T09:56:38.164Z,9.70
2019-06-01T09:59:08.277Z,10.20
2019-06-01T10:01:38.932Z,6.42
2019-06-01T10:04:09.645Z,8.17
2019-06-01T10:06:40.136Z,9.18
2019-06-01T10:09:09.626Z,7.22
2019-06-01T10:11:40.691Z,7.70
2019-06-01T10:14:10.153Z,7.95
2019-06-01T10:16:39.586Z,6.65
2019-06-01T10:19:09.096Z,7.62
2019-06-01T10:21:38.551Z,8.40
2019-06-01T10:24:08.079Z,13.18
2019-06-01T10:26:37.722Z,6.35
2019-06-01T10:29:07.238Z,7.20
2019-06-01T10:31:41.069Z,7.50
2019-06-01T10:34:08.042Z,5.95
2019-06-01T10:36:38.060Z,11.93
2019-06-01T10:39:08.353Z,6.12
2019-06-01T10:41:37.762Z,6.87
2019-06-01T10:44:07.366Z,6.92
2019-06-01T10:46:37.997Z,6.83
2019-06-01T10:49:07.659Z,6.60
2019-06-01T10:51:38.244Z,8.75
2019-06-01T10:54:07.924Z,6.65
2019-06-01T10:56:38.493Z,12.13
2019-06-01T10:59:08.181Z,6.03
2019-06-01T11:01:38.824Z,5.67
2019-06-01T11:04:08.485Z,4.67
2019-06-01T11:06:45.174Z,7.33
2019-06-01T11:09:09.973Z,6.70
2019-06-01T11:11:39.473Z,7.70
2019-06-01T11:14:08.988Z,8.80
2019-06-01T11:16:39.477Z,9.65
2019-06-01T11:19:17.190Z,6.75
2019-06-01T11:21:50.369Z,6.37
2019-06-01T11:24:19.903Z,6.35
2019-06-01T11:26:49.329Z,5.70
2019-06-01T11:29:18.840Z,6.33
2019-06-01T11:31:49.436Z,5.28
2019-06-01T11:34:18.968Z,8.20
2019-06-01T11:38:36.285Z,10.40
2019-06-01T11:41:05.855Z,7.17
2019-06-01T11:43:36.400Z,6.20
2019-06-01T11:46:05.986Z,6.55
2019-06-01T11:48:37.031Z,7.25
2019-06-01T11:51:06.701Z,5.42
2019-06-01T11:53:37.301Z,6.28
2019-06-01T11:56:07.048Z,5.55
2019-06-01T11:58:37.171Z,4.50
2019-06-01T12:01:06.876Z,5.67
2019-06-01T12:03:37.680Z,8.28
2019-06-01T12:06:07.203Z,7.80
2019-06-01T12:08:38.008Z,5.50
2019-06-01T12:11:07.573Z,7.87
2019-06-01T12:13:38.065Z,10.20
2019-06-01T12:16:08.571Z,6.78
2019-06-01T12:18:38.498Z,4.90
2019-06-01T12:21:09.235Z,6.25
2019-06-01T12:23:39.022Z,7.05
2019-06-01T12:26:08.593Z,5.28
2019-06-01T12:28:39.396Z,6.45
2019-06-01T12:31:09.431Z,6.03
2019-06-01T12:33:39.885Z,5.03
2019-06-01T12:36:09.361Z,7.90
2019-06-01T12:38:54.980Z,9.45
2019-06-01T12:41:24.464Z,6.25
2019-06-01T12:44:10.605Z,4.42
2019-06-01T12:46:42.111Z,7.58
2019-06-01T12:49:11.694Z,7.45
2019-06-01T12:51:42.391Z,6.60
2019-06-01T12:54:12.107Z,7.85
2019-06-01T12:56:42.883Z,5.72
2019-06-01T12:59:22.455Z,4.65
2019-06-01T13:01:51.388Z,4.83
2019-06-01T13:04:20.983Z,4.03
2019-06-01T13:06:52.552Z,7.70
2019-06-01T13:09:24.214Z,4.70
2019-06-01T13:11:53.601Z,6.50
2019-06-01T13:14:23.419Z,3.70
2019-06-01T13:17:06.250Z,6.47
2019-06-01T13:19:25.134Z,4.58
2019-06-01T13:21:54.648Z,5.45
2019-06-01T13:24:26.424Z,7.78
2019-06-01T13:26:56.223Z,6.50
2019-06-01T13:29:25.725Z,6.25
2019-06-01T13:31:55.198Z,7.33
2019-06-01T13:34:24.667Z,5.85
2019-06-01T13:36:54.073Z,9.08
2019-06-01T13:39:43.033Z,10.60
2019-06-01T13:42:12.502Z,6.37
2019-06-01T13:44:43.250Z,10.68
2019-06-01T13:47:12.908Z,10.45
2019-06-01T13:49:44.301Z,15.83
2019-06-01T13:52:13.592Z,10.78
2019-06-01T13:54:44.072Z,15.60
2019-06-01T13:57:15.874Z,12.43
2019-06-01T13:59:46.880Z,11.97
2019-06-01T14:02:16.641Z,13.25
2019-06-01T14:04:47.508Z,11.00
2019-06-01T14:07:32.697Z,12.65
2019-06-01T14:09:58.809Z,17.57
2019-06-01T14:12:28.368Z,14.98
2019-06-01T14:14:57.824Z,15.95
2019-06-01T14:17:27.285Z,12.90
2019-06-01T14:20:01.770Z,13.18
2019-06-01T14:22:31.195Z,13.05
2019-06-01T14:25:12.338Z,13.83
2019-06-01T14:27:31.826Z,10.98
2019-06-01T14:30:01.341Z,15.43
2019-06-01T14:32:33.469Z,15.88
2019-06-01T14:35:03.066Z,14.58
2019-06-01T14:37:32.495Z,13.80
2019-06-01T14:40:03.451Z,10.93
2019-06-01T14:42:32.865Z,18.15
2019-06-01T14:45:02.375Z,12.63
2019-06-01T14:47:31.786Z,16.75
2019-06-01T14:50:02.467Z,13.22
2019-06-01T14:52:35.117Z,13.55
2019-06-01T14:55:03.229Z,10.70
2019-06-01T14:57:32.682Z,13.62
2019-06-01T15:00:02.198Z,13.75
2019-06-01T15:02:31.709Z,11.73
2019-06-01T15:05:01.173Z,11.33
2019-06-01T15:07:30.627Z,10.50
2019-06-01T15:10:00.006Z,7.35
2019-06-01T15:12:29.468Z,6.80
2019-06-01T15:14:59.582Z,9.48
2019-06-01T15:17:29.071Z,11.95
2019-06-01T15:19:58.510Z,8.70
2019-06-01T15:22:27.974Z,8.03
2019-06-01T15:24:58.455Z,9.33
2019-06-01T15:27:28.996Z,11.05
2019-06-01T15:29:58.984Z,8.98
2019-06-01T15:32:28.580Z,11.55
2019-06-01T15:34:59.843Z,9.50
2019-06-01T15:37:30.275Z,8.88
2019-06-01T15:40:00.025Z,10.80
2019-06-01T15:42:29.564Z,8.13
2019-06-01T15:44:59.298Z,7.72
2019-06-01T15:47:28.874Z,11.00
2019-06-01T15:49:58.296Z,10.55
2019-06-01T15:52:28.894Z,10.58
2019-06-01T15:54:58.390Z,10.00
2019-06-01T15:57:27.790Z,9.48
2019-06-01T15:59:57.162Z,9.43
2019-06-01T16:02:26.576Z,11.05
2019-06-01T16:04:57.023Z,9.45
2019-06-01T16:07:26.758Z,13.40
2019-06-01T16:09:57.390Z,83.97
2019-06-01T16:12:32.637Z,20.30
2019-06-01T16:15:02.198Z,9.70
2019-06-01T16:17:32.421Z,10.53
2019-06-01T16:20:02.397Z,9.50
2019-06-01T16:22:33.866Z,8.08
2019-06-01T16:25:04.386Z,12.47
2019-06-01T16:27:33.957Z,9.08
2019-06-01T16:30:08.160Z,10.90
2019-06-01T16:32:39.525Z,10.30
2019-06-01T16:35:09.535Z,9.00
2019-06-01T16:37:39.195Z,11.63
2019-06-01T16:40:11.109Z,12.03
2019-06-01T16:42:43.776Z,8.48
2019-06-01T16:45:13.765Z,12.80
2019-06-01T16:47:44.473Z,13.22
2019-06-01T16:50:14.319Z,9.33
2019-06-01T16:52:43.836Z,10.03
2019-06-01T16:55:13.388Z,6.62
2019-06-01T16:57:42.915Z,8.63
2019-06-01T17:00:14.277Z,11.18
2019-06-01T17:02:43.883Z,8.95
2019-06-01T17:05:13.922Z,7.72
2019-06-01T17:07:43.413Z,8.38
2019-06-01T17:10:25.530Z,9.93
2019-06-01T17:12:45.565Z,9.08
2019-06-01T17:15:15.413Z,9.55
2019-06-01T17:17:46.277Z,8.10
2019-06-01T17:20:38.167Z,7.72
2019-06-01T17:23:24.307Z,7.40
2019-06-01T17:25:39.513Z,5.10
2019-06-01T17:28:09.369Z,7.03
2019-06-01T17:30:39.044Z,7.15
2019-06-01T17:33:08.688Z,7.10
2019-06-01T17:35:38.327Z,5.87
2019-06-01T17:38:09.057Z,6.87
2019-06-01T17:40:42.789Z,5.35
2019-06-01T17:43:10.035Z,7.05
2019-06-01T17:45:39.509Z,6.87
2019-06-01T17:48:21.871Z,5.70
2019-06-01T17:50:40.349Z,5.47
2019-06-01T17:53:09.791Z,5.83
2019-06-01T17:55:39.759Z,5.10
2019-06-01T17:58:12.240Z,4.90
2019-06-01T18:00:41.993Z,4.30
2019-06-01T18:03:12.105Z,4.30
2019-06-01T18:05:43.946Z,8.75
2019-06-01T18:08:14.683Z,3.35
2019-06-01T18:10:54.095Z,4.60
2019-06-01T18:13:15.566Z,3.20
2019-06-01T18:15:44.975Z,3.95
2019-06-01T18:18:14.479Z,4.55
2019-06-01T18:20:44.050Z,4.83
2019-06-01T18:23:13.557Z,3.67
2019-06-01T18:25:44.570Z,4.37
2019-06-01T18:28:18.578Z,4.85
2019-06-01T18:30:46.322Z,4.70
2019-06-01T18:33:15.981Z,4.35
2019-06-01T18:35:45.464Z,3.52
2019-06-01T18:38:15.023Z,5.45
2019-06-01T18:40:44.805Z,4.08
2019-06-01T18:43:18.093Z,12.28
2019-06-01T18:45:48.403Z,2.67
2019-06-01T18:48:18.934Z,5.83
2019-06-01T18:50:48.524Z,3.42
2019-06-01T18:53:18.319Z,7.62
2019-06-01T18:55:47.841Z,4.78
2019-06-01T18:58:17.326Z,4.03
2019-06-01T19:00:47.093Z,6.25
2019-06-01T19:03:16.632Z,4.42
2019-06-01T19:05:46.274Z,3.10
2019-06-01T19:08:16.263Z,5.25
2019-06-01T19:10:46.245Z,4.35
2019-06-01T19:13:16.525Z,4.47
2019-06-01T19:15:48.690Z,3.65
2019-06-01T19:18:18.129Z,3.80
2019-06-01T19:20:47.524Z,4.87
2019-06-01T19:23:22.083Z,5.83
2019-06-01T19:25:49.879Z,4.55
2019-06-01T19:28:23.773Z,3.05
2019-06-01T19:30:53.570Z,4.20
2019-06-01T19:33:26.663Z,3.85
2019-06-01T19:36:01.940Z,5.67
2019-06-01T19:38:32.539Z,4.65
2019-06-01T19:41:02.276Z,3.42
2019-06-01T19:43:31.891Z,4.05
2019-06-01T19:46:03.506Z,4.42
2019-06-01T19:48:33.208Z,7.47
2019-06-01T19:51:03.019Z,10.20
2019-06-01T19:53:32.561Z,4.90
2019-06-01T19:56:06.102Z,4.37
2019-06-01T19:58:35.607Z,6.00
2019-06-01T20:01:05.391Z,5.05
2019-06-01T20:03:35.076Z,4.95
2019-06-01T20:06:04.578Z,7.67
2019-06-01T20:08:39.993Z,5.37
2019-06-01T20:11:09.496Z,5.25
2019-06-01T20:13:39.042Z,6.05
2019-06-01T20:16:10.528Z,5.12
2019-06-01T20:18:40.180Z,7.90
2019-06-01T20:21:09.785Z,4.67
2019-06-01T20:23:39.438Z,6.00
2019-06-01T20:26:17.582Z,5.92
2019-06-01T20:28:50.036Z,7.05
2019-06-01T20:31:19.952Z,6.03
2019-06-01T20:33:55.494Z,4.92
2019-06-01T20:36:27.707Z,6.42
2019-06-01T20:38:57.380Z,7.67
2019-06-01T20:41:28.117Z,5.90
2019-06-01T20:43:57.637Z,8.50
2019-06-01T20:46:27.170Z,8.15
2019-06-01T20:48:56.687Z,6.60
2019-06-01T20:51:27.804Z,7.70
2019-06-01T20:53:57.341Z,7.28
2019-06-01T20:56:28.374Z,7.97
2019-06-01T20:58:57.937Z,5.37
2019-06-01T21:01:27.548Z,3.80
2019-06-01T21:04:04.003Z,5.78
2019-06-01T21:06:35.630Z,7.25
2019-06-01T21:09:08.178Z,5.97
2019-06-01T21:11:37.840Z,5.22
2019-06-01T21:16:54.963Z,5.95
2019-06-01T21:19:26.112Z,7.17
2019-06-01T21:21:55.607Z,7.62
2019-06-01T21:24:25.250Z,7.78
2019-06-01T21:26:54.860Z,6.35
2019-06-01T21:29:25.184Z,4.67
2019-06-01T21:32:00.677Z,3.52
2019-06-01T21:34:30.076Z,5.05
2019-06-01T21:36:59.556Z,5.50
2019-06-01T21:39:28.931Z,5.75
2019-06-01T21:41:58.436Z,5.08
2019-06-01T21:44:27.883Z,6.83
2019-06-01T21:46:57.362Z,6.03
2019-06-01T21:49:26.827Z,8.20
2019-06-01T21:51:56.287Z,4.97
2019-06-01T21:54:26.364Z,4.33
2019-06-01T21:56:55.921Z,7.67
2019-06-01T21:59:25.381Z,11.20
2019-06-01T22:01:54.824Z,5.67
2019-06-01T22:04:25.563Z,7.08
2019-06-01T22:06:56.150Z,4.10
2019-06-01T22:09:27.468Z,5.17
2019-06-01T22:11:57.024Z,4.92
2019-06-01T22:14:27.668Z,6.58
2019-06-01T22:16:57.246Z,9.65
2019-06-01T22:19:27.902Z,7.62
2019-06-01T22:21:57.546Z,8.25
2019-06-01T22:24:28.192Z,5.17
2019-06-01T22:26:57.778Z,5.90
2019-06-01T22:29:28.490Z,6.58
2019-06-01T22:31:59.246Z,6.80
2019-06-01T22:34:29.303Z,5.33
2019-06-01T22:36:58.906Z,4.75
2019-06-01T22:39:32.390Z,6.85
2019-06-01T22:42:01.850Z,5.65
2019-06-01T22:44:33.253Z,5.87
2019-06-01T22:47:02.499Z,7.37
2019-06-01T22:49:32.989Z,5.15
2019-06-01T22:52:02.419Z,5.15
2019-06-01T22:54:31.872Z,4.78
2019-06-01T22:57:01.278Z,9.95
2019-06-01T22:59:30.812Z,8.40
2019-06-01T23:02:00.390Z,7.35
2019-06-01T23:04:31.284Z,4.78
2019-06-01T23:07:00.920Z,7.65
2019-06-01T23:09:31.590Z,4.42
2019-06-01T23:12:01.053Z,5.25
2019-06-01T23:14:31.504Z,5.70
2019-06-01T23:17:01.008Z,6.45
2019-06-01T23:19:30.464Z,5.35
2019-06-01T23:21:59.927Z,4.95
2019-06-01T23:24:30.288Z,5.08
2019-06-01T23:26:59.854Z,5.45
2019-06-01T23:29:30.249Z,5.05
2019-06-01T23:32:00.875Z,6.67
2019-06-01T23:34:30.691Z,3.98
2019-06-01T23:37:00.966Z,5.40
2019-06-01T23:39:30.800Z,7.40
2019-06-01T23:42:00.382Z,6.78
2019-06-01T23:44:33.256Z,5.15
2019-06-01T23:47:00.990Z,6.35
2019-06-01T23:49:31.352Z,5.62
2019-06-01T23:52:01.786Z,7.03
2019-06-01T23:54:32.475Z,4.65
2019-06-01T23:57:02.177Z,5.80
2019-06-01T23:59:32.542Z,4.33
